Time;durP1;ratioP1;P1;durP2;ratioP2;P2;SDS_P1;SDS_P2;PMS_P1;PMS_P2;Temp;Humidity;BMP_temperature;BMP_pressure;BME280_temperature;BME280_humidity;BME280_pressure;Samples;Min_cycle;Max_cycle;Signal;HPM_P1;HPM_P2
2023/12/14 00:00:25;;;;;;;15.40;6.55;;;;;;;;;;4809556;29;20043;-96
2023/12/14 00:02:51;;;;;;;10.07;5.22;;;;;;;;;;4801352;29;20165;-96
2023/12/14 00:05:17;;;;;;;12.15;5.93;;;;;;;;;;4791385;29;20509;-96
2023/12/14 00:07:43;;;;;;;9.45;5.30;;;;;;;;;;4814194;29;20049;-96
2023/12/14 00:10:09;;;;;;;8.43;5.22;;;;;;;;;;4795120;29;20054;-96
2023/12/14 00:12:35;;;;;;;8.57;5.95;;;;;;;;;;4795521;29;20076;-96
2023/12/14 00:15:01;;;;;;;10.30;5.85;;;;;;;;;;4780855;29;20054;-95
2023/12/14 00:17:27;;;;;;;10.30;4.90;;;;;;;;;;4798646;29;20046;-96
2023/12/14 00:19:53;;;;;;;8.60;5.47;;;;;;;;;;4808785;29;20053;-93
2023/12/14 00:22:19;;;;;;;11.57;5.10;;;;;;;;;;4792820;29;20055;-96
2023/12/14 00:24:46;;;;;;;9.27;5.18;;;;;;;;;;4788611;29;20504;-96
2023/12/14 00:27:12;;;;;;;8.70;4.90;;;;;;;;;;4794373;29;20051;-96
2023/12/14 00:29:38;;;;;;;5.97;4.88;;;;;;;;;;4824507;29;20054;-96
2023/12/14 00:32:04;;;;;;;8.38;5.10;;;;;;;;;;4809228;29;20129;-94
2023/12/14 00:34:30;;;;;;;9.13;5.13;;;;;;;;;;4800573;29;20432;-96
2023/12/14 00:36:56;;;;;;;12.02;5.70;;;;;;;;;;4792703;29;20051;-95
2023/12/14 00:39:22;;;;;;;8.45;6.03;;;;;;;;;;4786291;29;20463;-94
2023/12/14 00:41:48;;;;;;;9.88;5.28;;;;;;;;;;4812263;29;20051;-95
2023/12/14 00:44:14;;;;;;;7.03;5.20;;;;;;;;;;4802309;29;20053;-96
2023/12/14 00:46:41;;;;;;;9.73;6.10;;;;;;;;;;4791701;29;20047;-96
2023/12/14 00:49:07;;;;;;;8.40;5.05;;;;;;;;;;4793548;29;20100;-94
2023/12/14 00:51:34;;;;;;;5.82;4.50;;;;;;;;;;4808415;29;20054;-95
2023/12/14 00:54:00;;;;;;;10.02;5.63;;;;;;;;;;4793355;29;20074;-96
2023/12/14 00:56:26;;;;;;;8.60;4.70;;;;;;;;;;4796686;29;20074;-96
2023/12/14 00:58:52;;;;;;;9.85;5.25;;;;;;;;;;4797321;29;20062;-95
2023/12/14 01:01:18;;;;;;;8.25;4.30;;;;;;;;;;4793259;29;20084;-95
2023/12/14 01:03:44;;;;;;;8.25;5.85;;;;;;;;;;4794523;29;20054;-96
2023/12/14 01:06:10;;;;;;;10.90;5.70;;;;;;;;;;4804589;29;20112;-96
2023/12/14 01:08:36;;;;;;;7.45;4.15;;;;;;;;;;4798279;29;20042;-95
2023/12/14 01:11:02;;;;;;;6.07;4.78;;;;;;;;;;4801933;29;20055;-93
2023/12/14 01:13:28;;;;;;;9.00;4.60;;;;;;;;;;4778872;29;20077;-96
2023/12/14 01:15:54;;;;;;;5.65;4.93;;;;;;;;;;4793329;29;20047;-95
2023/12/14 01:18:20;;;;;;;6.88;5.30;;;;;;;;;;4799158;29;20038;-95
2023/12/14 01:20:47;;;;;;;6.70;5.05;;;;;;;;;;4786783;29;20085;-93
2023/12/14 01:23:13;;;;;;;6.72;4.63;;;;;;;;;;4777983;29;20050;-96
2023/12/14 01:25:39;;;;;;;6.80;4.65;;;;;;;;;;4792946;29;20125;-96
2023/12/14 01:28:05;;;;;;;11.25;5.28;;;;;;;;;;4805474;29;20458;-96
2023/12/14 01:30:31;;;;;;;7.75;5.28;;;;;;;;;;4808821;29;20043;-95
2023/12/14 01:32:57;;;;;;;8.02;4.65;;;;;;;;;;4808662;29;20054;-94
2023/12/14 01:35:23;;;;;;;7.13;5.47;;;;;;;;;;4799307;29;20042;-96
2023/12/14 01:37:49;;;;;;;10.07;6.00;;;;;;;;;;4801422;29;20046;-96
2023/12/14 01:40:19;;;;;;;7.25;5.10;;;;;;;;;;4804490;29;20117;-95
2023/12/14 01:42:45;;;;;;;7.75;6.18;;;;;;;;;;4808910;29;20050;-92
2023/12/14 01:45:15;;;;;;;11.82;6.18;;;;;;;;;;4808712;29;20163;-91
2023/12/14 01:47:41;;;;;;;14.93;7.07;;;;;;;;;;4816661;29;20075;-91
2023/12/14 01:50:07;;;;;;;12.70;6.97;;;;;;;;;;4786764;29;20050;-92
2023/12/14 01:52:33;;;;;;;10.95;6.70;;;;;;;;;;4776550;29;20143;-93
2023/12/14 01:54:59;;;;;;;14.10;6.97;;;;;;;;;;4795146;29;20055;-93
2023/12/14 01:57:25;;;;;;;13.77;7.18;;;;;;;;;;4799251;29;20051;-94
2023/12/14 01:59:51;;;;;;;9.13;6.22;;;;;;;;;;4781619;29;20046;-91
2023/12/14 02:02:17;;;;;;;9.68;6.60;;;;;;;;;;4794170;29;20054;-94
2023/12/14 02:04:44;;;;;;;10.30;6.35;;;;;;;;;;4801368;29;20051;-92
2023/12/14 02:07:10;;;;;;;13.55;7.15;;;;;;;;;;4809585;29;20047;-93
2023/12/14 02:09:36;;;;;;;11.68;6.78;;;;;;;;;;4794105;29;20050;-93
2023/12/14 02:12:02;;;;;;;11.57;6.43;;;;;;;;;;4781539;29;20150;-94
2023/12/14 02:14:28;;;;;;;10.85;6.50;;;;;;;;;;4798395;29;20055;-93
2023/12/14 02:16:54;;;;;;;11.40;7.05;;;;;;;;;;4797451;29;20430;-93
2023/12/14 02:19:20;;;;;;;11.23;7.13;;;;;;;;;;4792410;29;20047;-96
2023/12/14 02:21:46;;;;;;;16.15;6.85;;;;;;;;;;4793431;29;20090;-96
2023/12/14 02:24:12;;;;;;;14.35;7.00;;;;;;;;;;4777071;29;20129;-92
2023/12/14 02:26:39;;;;;;;9.95;6.80;;;;;;;;;;4798707;29;20042;-92
2023/12/14 02:29:05;;;;;;;17.17;6.10;;;;;;;;;;4803866;29;20047;-96
2023/12/14 02:31:31;;;;;;;12.75;7.45;;;;;;;;;;4798806;29;20047;-96
2023/12/14 02:33:57;;;;;;;13.50;6.20;;;;;;;;;;4784418;29;20058;-96
2023/12/14 02:36:23;;;;;;;8.45;6.13;;;;;;;;;;4805805;29;20050;-96
2023/12/14 02:38:49;;;;;;;11.75;5.63;;;;;;;;;;4785956;29;20055;-95
2023/12/14 02:41:15;;;;;;;18.48;6.57;;;;;;;;;;4803776;29;20493;-96
2023/12/14 02:43:41;;;;;;;14.32;7.03;;;;;;;;;;4784060;29;20050;-96
2023/12/14 02:46:07;;;;;;;16.65;6.47;;;;;;;;;;4809268;29;20051;-96
2023/12/14 02:48:34;;;;;;;10.73;6.65;;;;;;;;;;4793293;29;20066;-91
2023/12/14 02:51:00;;;;;;;16.63;7.90;;;;;;;;;;4789031;29;20076;-91
2023/12/14 02:53:26;;;;;;;9.98;6.70;;;;;;;;;;4819429;29;20050;-92
2023/12/14 02:55:52;;;;;;;11.35;6.13;;;;;;;;;;4791215;29;22015;-91
2023/12/14 02:58:19;;;;;;;12.88;6.47;;;;;;;;;;4807745;29;20042;-90
2023/12/14 03:00:45;;;;;;;14.13;6.65;;;;;;;;;;4790106;29;20054;-91
2023/12/14 03:03:11;;;;;;;19.50;7.40;;;;;;;;;;4775406;29;20046;-90
2023/12/14 03:05:37;;;;;;;18.45;7.72;;;;;;;;;;4796960;29;20451;-92
2023/12/14 03:08:03;;;;;;;15.18;6.93;;;;;;;;;;4775172;29;20038;-93
2023/12/14 03:10:29;;;;;;;12.27;6.72;;;;;;;;;;4790257;29;20054;-92
2023/12/14 03:12:55;;;;;;;14.45;7.18;;;;;;;;;;4804776;29;20424;-90
2023/12/14 03:15:22;;;;;;;14.95;8.52;;;;;;;;;;4780142;29;20054;-96
2023/12/14 03:17:48;;;;;;;13.70;7.00;;;;;;;;;;4799035;29;20046;-92
2023/12/14 03:20:14;;;;;;;17.48;8.20;;;;;;;;;;4792448;29;20069;-91
2023/12/14 03:22:40;;;;;;;11.00;6.82;;;;;;;;;;4807791;29;20074;-95
2023/12/14 03:25:07;;;;;;;9.63;6.07;;;;;;;;;;4808547;29;20507;-95
2023/12/14 03:27:33;;;;;;;18.10;7.57;;;;;;;;;;4783301;29;20047;-95
2023/12/14 03:29:59;;;;;;;16.48;6.43;;;;;;;;;;4779278;29;20053;-95
2023/12/14 03:32:25;;;;;;;16.23;7.78;;;;;;;;;;4806231;29;20044;-95
2023/12/14 03:34:51;;;;;;;16.38;7.03;;;;;;;;;;4782514;29;20058;-95
2023/12/14 03:37:17;;;;;;;17.48;7.78;;;;;;;;;;4793595;29;20564;-96
2023/12/14 03:39:43;;;;;;;18.10;8.75;;;;;;;;;;4790285;29;20045;-96
2023/12/14 03:42:09;;;;;;;17.15;7.63;;;;;;;;;;4791446;29;20110;-95
2023/12/14 03:44:38;;;;;;;14.90;7.85;;;;;;;;;;4791272;29;20042;-96
2023/12/14 03:47:04;;;;;;;13.95;7.82;;;;;;;;;;4798572;29;20069;-96
2023/12/14 03:49:30;;;;;;;13.63;7.20;;;;;;;;;;4787588;29;20126;-96
2023/12/14 03:51:56;;;;;;;19.00;7.75;;;;;;;;;;4807392;29;20137;-95
2023/12/14 03:54:22;;;;;;;19.65;8.43;;;;;;;;;;4776673;29;20047;-96
2023/12/14 03:56:48;;;;;;;22.88;8.05;;;;;;;;;;4775526;29;20572;-96
2023/12/14 03:59:15;;;;;;;18.67;8.43;;;;;;;;;;4790866;29;20062;-96
2023/12/14 04:01:41;;;;;;;15.65;7.88;;;;;;;;;;4776011;29;20082;-96
2023/12/14 04:04:07;;;;;;;18.67;8.57;;;;;;;;;;4790695;29;20054;-96
2023/12/14 04:06:33;;;;;;;15.50;7.95;;;;;;;;;;4808270;29;20500;-96
2023/12/14 04:08:59;;;;;;;14.00;7.38;;;;;;;;;;4780231;29;20047;-96
2023/12/14 04:11:25;;;;;;;14.73;7.55;;;;;;;;;;4799178;29;20054;-96
2023/12/14 04:13:53;;;;;;;12.82;7.07;;;;;;;;;;4803911;29;20111;-95
2023/12/14 04:16:22;;;;;;;10.82;7.15;;;;;;;;;;4803587;29;20057;-96
2023/12/14 04:18:48;;;;;;;14.38;8.07;;;;;;;;;;4793358;29;20137;-95
2023/12/14 04:21:14;;;;;;;10.00;7.28;;;;;;;;;;4809477;29;20046;-95
2023/12/14 04:23:41;;;;;;;17.52;7.85;;;;;;;;;;4796527;29;20042;-93
2023/12/14 04:26:09;;;;;;;16.05;8.27;;;;;;;;;;4787579;29;20049;-96
2023/12/14 04:28:35;;;;;;;17.20;8.07;;;;;;;;;;4810629;29;20050;-96
2023/12/14 04:31:01;;;;;;;14.63;8.18;;;;;;;;;;4797574;29;20053;-94
2023/12/14 04:33:27;;;;;;;15.93;8.00;;;;;;;;;;4799184;29;20062;-94
2023/12/14 04:35:54;;;;;;;16.08;8.57;;;;;;;;;;4811406;29;20089;-96
2023/12/14 04:38:20;;;;;;;13.43;8.35;;;;;;;;;;4785446;29;20051;-92
2023/12/14 04:40:46;;;;;;;12.85;6.95;;;;;;;;;;4785597;29;20050;-91
2023/12/14 04:43:12;;;;;;;14.30;8.75;;;;;;;;;;4818359;29;20381;-95
2023/12/14 04:45:38;;;;;;;18.42;7.97;;;;;;;;;;4817515;29;20050;-96
2023/12/14 04:48:04;;;;;;;12.45;8.05;;;;;;;;;;4802917;29;20039;-96
2023/12/14 04:50:30;;;;;;;17.75;8.85;;;;;;;;;;4802166;29;20080;-95
2023/12/14 04:52:57;;;;;;;13.68;8.23;;;;;;;;;;4790449;29;20058;-96
2023/12/14 04:55:23;;;;;;;18.90;8.35;;;;;;;;;;4788003;29;20051;-95
2023/12/14 04:57:49;;;;;;;15.30;8.15;;;;;;;;;;4790259;29;20134;-96
2023/12/14 05:00:15;;;;;;;21.90;9.57;;;;;;;;;;4811145;29;20046;-94
2023/12/14 05:02:41;;;;;;;14.90;7.78;;;;;;;;;;4808625;29;20042;-92
2023/12/14 05:05:07;;;;;;;17.42;8.30;;;;;;;;;;4804345;29;20054;-94
2023/12/14 05:07:33;;;;;;;13.98;7.40;;;;;;;;;;4809104;29;20054;-96
2023/12/14 05:09:59;;;;;;;15.55;8.77;;;;;;;;;;4809944;29;20051;-93
2023/12/14 05:12:26;;;;;;;12.07;7.53;;;;;;;;;;4811012;29;20068;-95
2023/12/14 05:14:53;;;;;;;14.60;8.57;;;;;;;;;;4814626;29;20106;-93
2023/12/14 05:17:19;;;;;;;15.45;8.52;;;;;;;;;;4812977;29;20046;-96
2023/12/14 05:19:46;;;;;;;12.80;8.00;;;;;;;;;;4817527;29;20051;-96
2023/12/14 05:22:12;;;;;;;14.88;8.60;;;;;;;;;;4797112;29;20055;-96
2023/12/14 05:24:38;;;;;;;14.05;7.22;;;;;;;;;;4801861;29;20426;-96
2023/12/14 05:27:04;;;;;;;17.75;8.80;;;;;;;;;;4814837;29;20054;-96
2023/12/14 05:29:32;;;;;;;17.00;8.25;;;;;;;;;;4811074;29;20050;-96
2023/12/14 05:31:59;;;;;;;16.42;8.35;;;;;;;;;;4795919;29;20049;-95
2023/12/14 05:34:25;;;;;;;16.85;7.97;;;;;;;;;;4810385;29;20063;-96
2023/12/14 05:36:51;;;;;;;15.15;8.63;;;;;;;;;;4817471;29;20042;-96
2023/12/14 05:39:17;;;;;;;19.67;7.85;;;;;;;;;;4825139;29;20134;-96
2023/12/14 05:41:49;;;;;;;15.45;8.02;;;;;;;;;;4815760;29;20042;-95
2023/12/14 05:44:22;;;;;;;16.85;7.85;;;;;;;;;;4816027;29;20046;-94
2023/12/14 05:47:31;;;;;;;14.60;7.65;;;;;;;;;;4805977;29;20103;-93
2023/12/14 05:50:05;;;;;;;13.10;7.68;;;;;;;;;;4808999;29;20053;-93
2023/12/14 05:52:34;;;;;;;16.23;8.75;;;;;;;;;;4808476;29;20058;-94
2023/12/14 05:55:06;;;;;;;22.38;7.70;;;;;;;;;;4800630;29;20052;-92
2023/12/14 05:57:42;;;;;;;17.38;9.10;;;;;;;;;;4811368;29;20049;-91
2023/12/14 06:00:21;;;;;;;14.60;7.28;;;;;;;;;;4809316;29;20098;-91
2023/12/14 06:03:00;;;;;;;19.40;8.25;;;;;;;;;;4811224;29;20061;-95
2023/12/14 06:05:31;;;;;;;16.58;8.38;;;;;;;;;;4809906;29;20053;-92
2023/12/14 06:08:03;;;;;;;13.40;8.27;;;;;;;;;;4811442;29;20121;-93
2023/12/14 06:10:35;;;;;;;12.95;7.57;;;;;;;;;;4794765;29;20058;-92
2023/12/14 06:15:56;;;;;;;19.65;8.35;;;;;;;;;;4797386;29;20054;-90
2023/12/14 06:18:28;;;;;;;17.30;8.80;;;;;;;;;;4786490;29;20038;-92
2023/12/14 06:21:07;;;;;;;17.20;9.02;;;;;;;;;;4794811;29;20082;-91
2023/12/14 06:23:33;;;;;;;14.63;9.20;;;;;;;;;;4810168;29;20110;-93
2023/12/14 06:25:59;;;;;;;15.60;8.52;;;;;;;;;;4806108;29;20074;-92
2023/12/14 06:28:31;;;;;;;13.82;7.63;;;;;;;;;;4806762;29;20096;-91
2023/12/14 06:30:57;;;;;;;12.45;8.13;;;;;;;;;;4808235;29;20103;-92
2023/12/14 06:33:26;;;;;;;16.80;7.78;;;;;;;;;;4794843;29;20057;-94
2023/12/14 06:35:52;;;;;;;15.23;8.00;;;;;;;;;;4802554;29;20047;-92
2023/12/14 06:38:18;;;;;;;16.23;8.82;;;;;;;;;;4808543;29;20050;-93
2023/12/14 06:40:44;;;;;;;13.27;8.63;;;;;;;;;;4810569;29;20042;-96
2023/12/14 06:43:10;;;;;;;23.67;9.70;;;;;;;;;;4796168;29;20050;-96
2023/12/14 06:45:39;;;;;;;12.57;7.70;;;;;;;;;;4809884;29;20042;-90
2023/12/14 06:48:05;;;;;;;15.18;7.82;;;;;;;;;;4793336;29;20082;-91
2023/12/14 06:50:32;;;;;;;19.38;8.15;;;;;;;;;;4819486;29;20042;-96
2023/12/14 06:52:58;;;;;;;16.30;8.05;;;;;;;;;;4828662;29;20075;-95
2023/12/14 06:55:36;;;;;;;17.88;7.93;;;;;;;;;;4828960;29;20050;-92
2023/12/14 06:58:02;;;;;;;18.88;8.68;;;;;;;;;;4827909;29;20030;-96
2023/12/14 07:00:34;;;;;;;31.73;8.75;;;;;;;;;;4845300;29;20030;-96
2023/12/14 07:03:00;;;;;;;20.13;8.23;;;;;;;;;;4829708;29;20057;-96
2023/12/14 07:05:29;;;;;;;19.10;7.82;;;;;;;;;;4844782;29;20046;-91
2023/12/14 07:07:56;;;;;;;17.15;8.88;;;;;;;;;;4816149;29;20044;-96
2023/12/14 07:10:28;;;;;;;21.05;9.40;;;;;;;;;;4829960;29;20103;-96
2023/12/14 07:12:58;;;;;;;20.83;8.70;;;;;;;;;;4815126;29;20073;-94
2023/12/14 07:15:24;;;;;;;24.92;10.85;;;;;;;;;;4801314;29;20119;-95
2023/12/14 07:17:51;;;;;;;19.83;9.18;;;;;;;;;;4798946;29;20046;-94
2023/12/14 07:20:17;;;;;;;16.23;9.35;;;;;;;;;;4805964;29;20046;-95
2023/12/14 07:22:43;;;;;;;14.05;8.95;;;;;;;;;;4797957;29;20051;-94
2023/12/14 07:25:09;;;;;;;17.52;9.38;;;;;;;;;;4793114;29;20061;-94
2023/12/14 07:27:35;;;;;;;17.35;8.85;;;;;;;;;;4809690;29;20133;-94
2023/12/14 07:30:01;;;;;;;16.15;9.10;;;;;;;;;;4810669;29;20054;-94
2023/12/14 07:32:27;;;;;;;16.40;9.55;;;;;;;;;;4825549;29;20050;-93
2023/12/14 07:34:54;;;;;;;19.15;8.82;;;;;;;;;;4810507;29;20109;-95
2023/12/14 07:37:23;;;;;;;14.52;9.25;;;;;;;;;;4824869;29;20572;-94
2023/12/14 07:39:49;;;;;;;17.67;9.93;;;;;;;;;;4807757;29;20168;-91
2023/12/14 07:42:19;;;;;;;13.60;8.40;;;;;;;;;;4807542;29;20050;-91
2023/12/14 07:44:45;;;;;;;14.90;8.95;;;;;;;;;;4807353;29;20423;-91
2023/12/14 07:47:11;;;;;;;21.77;8.15;;;;;;;;;;4808289;29;20420;-91
2023/12/14 07:49:37;;;;;;;25.23;10.32;;;;;;;;;;4807789;29;20050;-91
2023/12/14 07:52:04;;;;;;;22.10;8.65;;;;;;;;;;4808691;29;20512;-90
2023/12/14 07:54:30;;;;;;;17.55;9.75;;;;;;;;;;4808121;29;20528;-94
2023/12/14 07:56:56;;;;;;;14.07;8.25;;;;;;;;;;4793166;29;20042;-92
2023/12/14 07:59:22;;;;;;;15.90;8.80;;;;;;;;;;4808105;29;20050;-92
2023/12/14 08:01:50;;;;;;;13.52;8.15;;;;;;;;;;4824019;29;20512;-92
2023/12/14 08:04:16;;;;;;;22.35;9.77;;;;;;;;;;4813186;29;20093;-94
2023/12/14 08:06:42;;;;;;;17.83;9.30;;;;;;;;;;4808309;29;20042;-95
2023/12/14 08:09:09;;;;;;;13.68;8.50;;;;;;;;;;4793277;29;20057;-92
2023/12/14 08:11:35;;;;;;;17.10;9.65;;;;;;;;;;4824831;29;20047;-94
2023/12/14 08:14:01;;;;;;;15.68;8.57;;;;;;;;;;4807914;29;20493;-94
2023/12/14 08:16:27;;;;;;;15.70;8.48;;;;;;;;;;4793237;29;20050;-92
2023/12/14 08:18:53;;;;;;;17.05;8.57;;;;;;;;;;4794290;29;20050;-94
2023/12/14 08:21:20;;;;;;;16.10;9.55;;;;;;;;;;4794268;29;20054;-94
2023/12/14 08:23:46;;;;;;;18.73;8.90;;;;;;;;;;4811515;29;20077;-91
2023/12/14 08:26:12;;;;;;;14.68;8.38;;;;;;;;;;4813801;29;20080;-94
2023/12/14 08:28:42;;;;;;;18.40;8.65;;;;;;;;;;4798362;29;20186;-92
2023/12/14 08:31:10;;;;;;;19.08;8.40;;;;;;;;;;4796476;29;20107;-93
2023/12/14 08:33:37;;;;;;;15.75;7.97;;;;;;;;;;4798328;29;20055;-91
2023/12/14 08:36:03;;;;;;;17.55;9.05;;;;;;;;;;4795720;29;20052;-94
2023/12/14 08:38:29;;;;;;;18.25;9.93;;;;;;;;;;4809499;29;20062;-95
2023/12/14 08:40:55;;;;;;;16.27;9.07;;;;;;;;;;4811157;29;20050;-93
2023/12/14 08:43:21;;;;;;;12.55;8.57;;;;;;;;;;4795971;29;20043;-92
2023/12/14 08:45:48;;;;;;;18.48;7.65;;;;;;;;;;4811347;29;20062;-94
2023/12/14 08:48:14;;;;;;;18.90;9.45;;;;;;;;;;4811585;29;20046;-94
2023/12/14 08:50:40;;;;;;;16.45;8.75;;;;;;;;;;4811083;29;20504;-92
2023/12/14 08:53:08;;;;;;;21.00;9.95;;;;;;;;;;4810806;29;20058;-93
2023/12/14 08:55:34;;;;;;;14.05;8.52;;;;;;;;;;4810902;29;20557;-94
2023/12/14 08:58:00;;;;;;;16.63;8.13;;;;;;;;;;4811289;29;20400;-93
2023/12/14 09:00:26;;;;;;;15.35;8.30;;;;;;;;;;4811190;29;20038;-93
2023/12/14 09:02:52;;;;;;;22.65;9.35;;;;;;;;;;4810394;29;20502;-94
2023/12/14 09:05:20;;;;;;;21.45;8.95;;;;;;;;;;4806181;29;20046;-92
2023/12/14 09:07:46;;;;;;;17.38;8.73;;;;;;;;;;4804265;29;20046;-93
2023/12/14 09:10:13;;;;;;;14.25;8.48;;;;;;;;;;4810552;29;20055;-92
2023/12/14 09:12:39;;;;;;;20.73;8.95;;;;;;;;;;4810691;29;20075;-95
2023/12/14 09:15:05;;;;;;;20.83;8.73;;;;;;;;;;4811203;29;20381;-91
2023/12/14 09:17:34;;;;;;;16.50;9.13;;;;;;;;;;4810614;29;20601;-92
2023/12/14 09:20:00;;;;;;;18.92;9.30;;;;;;;;;;4809989;29;20506;-93
2023/12/14 09:22:26;;;;;;;20.92;9.45;;;;;;;;;;4810815;29;20081;-92
2023/12/14 09:24:53;;;;;;;19.27;9.45;;;;;;;;;;4810298;29;20046;-92
2023/12/14 09:27:19;;;;;;;14.88;8.85;;;;;;;;;;4810432;29;20452;-93
2023/12/14 09:29:45;;;;;;;17.67;9.25;;;;;;;;;;4811130;29;20046;-94
2023/12/14 09:32:11;;;;;;;13.52;8.35;;;;;;;;;;4811178;29;20054;-92
2023/12/14 09:34:37;;;;;;;16.02;9.30;;;;;;;;;;4810555;29;20077;-91
2023/12/14 09:37:03;;;;;;;16.75;9.90;;;;;;;;;;4810230;29;20042;-92
2023/12/14 09:39:29;;;;;;;19.35;8.95;;;;;;;;;;4810366;29;20102;-93
2023/12/14 09:42:05;;;;;;;21.88;9.82;;;;;;;;;;4810520;29;20046;-93
2023/12/14 09:44:32;;;;;;;22.23;10.68;;;;;;;;;;4810479;29;20054;-94
2023/12/14 09:46:59;;;;;;;20.52;9.88;;;;;;;;;;4810617;29;20147;-94
2023/12/14 09:49:32;;;;;;;20.73;9.10;;;;;;;;;;4810434;29;20054;-95
2023/12/14 09:51:59;;;;;;;14.88;10.18;;;;;;;;;;4810041;29;20049;-95
2023/12/14 09:54:28;;;;;;;17.70;9.77;;;;;;;;;;4810007;29;20144;-92
2023/12/14 09:56:55;;;;;;;20.95;10.45;;;;;;;;;;4810023;29;20193;-92
2023/12/14 09:59:21;;;;;;;18.00;9.57;;;;;;;;;;4824991;29;20043;-91
2023/12/14 10:01:47;;;;;;;20.00;8.73;;;;;;;;;;4809934;29;20054;-92
2023/12/14 10:04:17;;;;;;;21.30;10.00;;;;;;;;;;4809505;29;20515;-93
2023/12/14 10:06:44;;;;;;;21.50;9.27;;;;;;;;;;4809288;29;20066;-92
2023/12/14 10:09:13;;;;;;;21.60;10.40;;;;;;;;;;4806102;29;20043;-96
2023/12/14 10:11:43;;;;;;;15.40;9.13;;;;;;;;;;4792378;29;20058;-94
2023/12/14 10:14:22;;;;;;;22.10;9.18;;;;;;;;;;4791841;29;20047;-95
2023/12/14 10:16:49;;;;;;;17.48;9.63;;;;;;;;;;4777476;29;20059;-94
2023/12/14 10:19:17;;;;;;;23.88;8.52;;;;;;;;;;4776963;29;20042;-93
2023/12/14 10:21:43;;;;;;;16.40;8.68;;;;;;;;;;4791619;29;20090;-93
2023/12/14 10:24:09;;;;;;;20.08;10.68;;;;;;;;;;4793016;29;20066;-94
2023/12/14 10:26:35;;;;;;;20.73;10.30;;;;;;;;;;4791708;29;20047;-94
2023/12/14 10:29:04;;;;;;;24.00;10.80;;;;;;;;;;4776946;29;20134;-93
2023/12/14 10:31:31;;;;;;;24.00;10.05;;;;;;;;;;4791491;29;20051;-91
2023/12/14 10:33:57;;;;;;;21.65;10.00;;;;;;;;;;4793564;29;20538;-94
2023/12/14 10:36:25;;;;;;;15.48;8.55;;;;;;;;;;4809662;29;20069;-95
2023/12/14 10:38:57;;;;;;;21.83;9.30;;;;;;;;;;4795247;29;20480;-92
2023/12/14 10:41:23;;;;;;;23.55;9.48;;;;;;;;;;4824670;29;20072;-94
2023/12/14 10:43:51;;;;;;;16.33;8.75;;;;;;;;;;4808733;29;20046;-93
2023/12/14 10:46:17;;;;;;;17.45;9.55;;;;;;;;;;4808991;29;20051;-92
2023/12/14 10:48:45;;;;;;;20.27;10.00;;;;;;;;;;4808884;29;20132;-91
2023/12/14 10:51:12;;;;;;;17.08;8.65;;;;;;;;;;4809152;29;20142;-91
2023/12/14 10:53:38;;;;;;;20.58;9.25;;;;;;;;;;4806014;29;20077;-92
2023/12/14 10:56:10;;;;;;;17.48;8.88;;;;;;;;;;4805439;29;20090;-93
2023/12/14 10:58:46;;;;;;;16.30;9.40;;;;;;;;;;4805903;29;20047;-91
2023/12/14 11:01:16;;;;;;;17.55;8.65;;;;;;;;;;4812782;29;20073;-92
2023/12/14 11:03:44;;;;;;;22.15;10.05;;;;;;;;;;4808754;29;20050;-92
2023/12/14 11:06:37;;;;;;;16.35;9.70;;;;;;;;;;4808712;29;20046;-95
2023/12/14 11:09:09;;;;;;;15.87;8.47;;;;;;;;;;4805938;29;20059;-94
2023/12/14 11:11:48;;;;;;;20.85;8.70;;;;;;;;;;4809575;29;20054;-93
2023/12/14 11:14:18;;;;;;;21.50;9.38;;;;;;;;;;4808909;29;20135;-95
2023/12/14 11:16:46;;;;;;;12.77;8.05;;;;;;;;;;4808998;29;20046;-94
2023/12/14 11:19:21;;;;;;;21.00;10.05;;;;;;;;;;4791142;29;20051;-95
2023/12/14 11:21:48;;;;;;;24.13;10.82;;;;;;;;;;4790467;29;20051;-92
2023/12/14 11:24:14;;;;;;;18.27;9.15;;;;;;;;;;4790156;29;20053;-92
2023/12/14 11:26:41;;;;;;;16.55;9.63;;;;;;;;;;4793544;29;20473;-92
2023/12/14 11:29:07;;;;;;;15.35;8.90;;;;;;;;;;4808260;29;20093;-92
2023/12/14 11:31:35;;;;;;;16.23;9.15;;;;;;;;;;4808034;29;20046;-93
2023/12/14 11:34:03;;;;;;;16.92;9.25;;;;;;;;;;4793240;29;20054;-91
2023/12/14 11:36:29;;;;;;;20.20;9.02;;;;;;;;;;4808382;29;20108;-91
2023/12/14 11:38:55;;;;;;;15.57;8.75;;;;;;;;;;4807964;29;20085;-90
2023/12/14 11:41:21;;;;;;;14.02;8.18;;;;;;;;;;4807855;29;20050;-95
2023/12/14 11:43:52;;;;;;;15.93;8.63;;;;;;;;;;4808605;29;20088;-92
2023/12/14 11:46:19;;;;;;;15.25;8.70;;;;;;;;;;4808958;29;20149;-95
2023/12/14 11:48:46;;;;;;;12.40;7.45;;;;;;;;;;4808186;29;20054;-91
2023/12/14 11:51:12;;;;;;;15.05;8.43;;;;;;;;;;4807723;29;20081;-92
2023/12/14 11:53:38;;;;;;;15.45;8.73;;;;;;;;;;4822971;29;20097;-93
2023/12/14 11:56:05;;;;;;;17.60;8.63;;;;;;;;;;4792700;29;20098;-91
2023/12/14 11:58:35;;;;;;;16.02;9.15;;;;;;;;;;4807541;29;20078;-93
2023/12/14 12:01:21;;;;;;;18.75;9.13;;;;;;;;;;4790179;29;20054;-94
2023/12/14 12:03:47;;;;;;;20.17;8.05;;;;;;;;;;4804956;29;20441;-91
2023/12/14 12:06:33;;;;;;;13.95;8.10;;;;;;;;;;4789384;29;20059;-91
2023/12/14 12:08:59;;;;;;;16.65;9.02;;;;;;;;;;4790433;29;20067;-94
2023/12/14 12:11:27;;;;;;;14.82;8.63;;;;;;;;;;4817606;29;20054;-91
2023/12/14 12:13:54;;;;;;;13.75;8.55;;;;;;;;;;4812233;29;20050;-91
2023/12/14 12:16:22;;;;;;;16.88;9.43;;;;;;;;;;4806787;29;20050;-91
2023/12/14 12:18:48;;;;;;;19.25;9.30;;;;;;;;;;4807601;29;20046;-91
2023/12/14 12:21:14;;;;;;;19.83;7.43;;;;;;;;;;4807803;29;20060;-91
2023/12/14 12:23:41;;;;;;;14.27;9.45;;;;;;;;;;4810382;29;20058;-90
2023/12/14 12:26:08;;;;;;;14.52;8.32;;;;;;;;;;4810009;29;20062;-94
2023/12/14 12:28:34;;;;;;;13.85;8.82;;;;;;;;;;4807852;29;20042;-94
2023/12/14 12:31:00;;;;;;;20.20;9.02;;;;;;;;;;4808168;29;20385;-92
2023/12/14 12:33:26;;;;;;;14.02;8.60;;;;;;;;;;4807640;29;20105;-92
2023/12/14 12:35:54;;;;;;;13.48;8.35;;;;;;;;;;4807835;29;20046;-93
2023/12/14 12:38:20;;;;;;;12.68;8.00;;;;;;;;;;4808376;29;20095;-91
2023/12/14 12:40:46;;;;;;;15.35;7.70;;;;;;;;;;4807534;29;20109;-93
2023/12/14 12:43:13;;;;;;;13.50;8.07;;;;;;;;;;4807859;29;20042;-93
2023/12/14 12:45:39;;;;;;;18.00;8.82;;;;;;;;;;4808246;29;20050;-93
2023/12/14 12:48:06;;;;;;;16.58;8.18;;;;;;;;;;4807594;29;20051;-92
2023/12/14 12:50:33;;;;;;;18.73;9.68;;;;;;;;;;4807426;29;20196;-94
2023/12/14 12:52:59;;;;;;;17.17;8.88;;;;;;;;;;4807786;29;20090;-93
2023/12/14 12:55:25;;;;;;;13.57;8.70;;;;;;;;;;4808081;29;20107;-93
2023/12/14 12:57:51;;;;;;;16.33;8.98;;;;;;;;;;4807656;29;20054;-94
2023/12/14 13:00:17;;;;;;;15.68;8.98;;;;;;;;;;4808018;29;20054;-95
2023/12/14 13:02:47;;;;;;;17.90;9.45;;;;;;;;;;4811018;29;20050;-93
2023/12/14 13:05:13;;;;;;;23.88;9.20;;;;;;;;;;4810683;29;20058;-94
2023/12/14 13:07:42;;;;;;;12.43;8.10;;;;;;;;;;4811553;29;20385;-93
2023/12/14 13:10:09;;;;;;;15.75;9.63;;;;;;;;;;4825849;29;20046;-91
2023/12/14 13:12:35;;;;;;;15.68;9.32;;;;;;;;;;4811067;29;20059;-94
2023/12/14 13:15:01;;;;;;;15.18;8.60;;;;;;;;;;4810936;29;20091;-92
2023/12/14 13:17:27;;;;;;;12.88;8.13;;;;;;;;;;4810156;29;20046;-92
2023/12/14 13:19:53;;;;;;;15.02;9.32;;;;;;;;;;4811004;29;20054;-94
2023/12/14 13:22:20;;;;;;;11.05;7.55;;;;;;;;;;4810891;29;20532;-95
2023/12/14 13:24:46;;;;;;;13.88;9.23;;;;;;;;;;4810749;29;20535;-92
2023/12/14 13:27:12;;;;;;;18.85;8.60;;;;;;;;;;4811368;29;20133;-94
2023/12/14 13:29:38;;;;;;;14.48;8.38;;;;;;;;;;4810606;29;20054;-92
2023/12/14 13:32:04;;;;;;;12.18;8.55;;;;;;;;;;4810907;29;20129;-94
2023/12/14 13:34:32;;;;;;;15.60;8.65;;;;;;;;;;4810584;29;20412;-94
2023/12/14 13:37:00;;;;;;;16.58;8.52;;;;;;;;;;4809923;29;20047;-93
2023/12/14 13:39:27;;;;;;;17.05;7.82;;;;;;;;;;4810507;29;20054;-93
2023/12/14 13:41:54;;;;;;;13.57;7.90;;;;;;;;;;4810619;29;20057;-93
2023/12/14 13:44:21;;;;;;;19.90;9.50;;;;;;;;;;4810394;29;20057;-93
2023/12/14 13:46:47;;;;;;;12.68;8.43;;;;;;;;;;4810642;29;20050;-93
2023/12/14 13:49:13;;;;;;;14.23;7.40;;;;;;;;;;4811090;29;20072;-94
2023/12/14 13:51:39;;;;;;;14.10;8.15;;;;;;;;;;4810099;29;20460;-93
2023/12/14 13:54:05;;;;;;;14.48;8.00;;;;;;;;;;4809921;29;20491;-92
2023/12/14 13:56:31;;;;;;;14.32;8.95;;;;;;;;;;4810130;29;20050;-94
2023/12/14 13:58:58;;;;;;;15.10;8.25;;;;;;;;;;4810647;29;20106;-96
2023/12/14 14:01:24;;;;;;;15.23;8.70;;;;;;;;;;4810214;29;20137;-94
2023/12/14 14:03:51;;;;;;;10.90;7.78;;;;;;;;;;4810197;29;20075;-94
2023/12/14 14:06:17;;;;;;;20.17;8.98;;;;;;;;;;4795551;29;20508;-96
2023/12/14 14:08:43;;;;;;;16.85;8.50;;;;;;;;;;4795165;29;20046;-94
2023/12/14 14:11:09;;;;;;;11.13;7.72;;;;;;;;;;4810217;29;20454;-94
2023/12/14 14:13:35;;;;;;;10.45;7.68;;;;;;;;;;4794028;29;20049;-96
2023/12/14 14:16:01;;;;;;;17.55;8.80;;;;;;;;;;4795162;29;20046;-95
2023/12/14 14:18:27;;;;;;;14.43;8.73;;;;;;;;;;4810251;29;20050;-95
2023/12/14 14:20:53;;;;;;;14.27;8.38;;;;;;;;;;4810437;29;20187;-95
2023/12/14 14:23:19;;;;;;;23.00;8.32;;;;;;;;;;4810161;29;20046;-94
2023/12/14 14:25:46;;;;;;;13.50;8.02;;;;;;;;;;4825865;29;20077;-94
2023/12/14 14:28:12;;;;;;;13.13;8.82;;;;;;;;;;4810477;29;20050;-95
2023/12/14 14:30:41;;;;;;;12.18;7.78;;;;;;;;;;4809895;29;20133;-93
2023/12/14 14:33:07;;;;;;;14.82;8.07;;;;;;;;;;4810153;29;20061;-92